Atoka, OK

3:35 AM CDT on July 28, 2014 (GMT -0500)
Atoka Municipal (KAQR) Elev 591 ft | 34.40 °N, 96.15 °W | Change Station

Current weather conditions updated 40 minutes ago

Clear
Clear
79 °F
Feels Like 79 °F
N
5
Wind Variable Wind from North

Today is forecast to be Cooler than yesterday.

Today
High -- | Low -- °F
--% Chance of Precip.
Yesterday
High -- | Low -- °F
Precip. -- in
6:32 AM 8:29 PM
New Moon, 2% visible
Pressure 30.07 in
Visibility 10.0 miles
Clouds Clear
Dew Point 79 °F
Humidity 100%
Rainfall 0.02 in
Snow Depth Not available.
UV 0 out of 12
Pollen 4.70 out of 12
Air Quality Not available.
Flu Activity Not available.
METAR KAQR 280755Z AUTO 01004KT 10SM CLR 26/26 A3007 RMK AO2 LTG DSNT W

More Conditions Fewer Conditions

Pressure 30.07 in
Visibility 10.0 miles
Clouds Clear
Dew Point 79 °F
Humidity 100%
Rainfall 0.02 in
Snow Depth Not available.
UV 0 out of 12
Pollen 4.70 out of 12
Air Quality Not available.
Flu Activity Not available.
METAR KAQR 280755Z AUTO 01004KT 10SM CLR 26/26 A3007 RMK AO2 LTG DSNT W

More Conditions Fewer Conditions

10-Day Weather Forecast

Almanac

Astronomy

Jul. 28, 2014 Rise Set
Actual Time 6:32 AM CDT 8:29 PM CDT
Civil Twilight 6:04 AM CDT 8:57 PM CDT
Nautical Twilight 5:30 AM CDT 9:30 PM CDT
Astronomical Twilight 4:54 AM CDT 10:06 PM CDT
Moon 8:08 AM CDT 9:19 PM CDT
Length of Visible Light 14h 52m
Length of Day
13h 56m
Tomorrow will be 1m 30s shorter.
New Moon, 2% of the Moon is Illuminated
Today
New Moon
Aug 3
First Quarter
Aug 10
Full
Aug 17
Last Quarter
Aug 25
New

Today's Extremes

State Highs State Lows

Community

WunderPhotos

Upload Photos

1,738,294 photos uploaded!

Nearby

Snow Depth

Station Depth Elevation
No new snow has been reported.

Earthquake Activity

City Distance Mag. Time & Date
Langston, Oklahoma 124 miles 3.3 9:02 PM CDT
2014-07-22
Guthrie, Oklahoma 124 miles 2.5 7:25 PM CDT
2014-07-22
Guthrie, Oklahoma 122 miles 2.6 12:28 PM CDT
2014-07-22
Spencer, Oklahoma 110 miles 2.6 9:08 PM CDT
2014-07-21
Minimum magnitude displayed is 2.5.

Coastal Water Temperatures

Place Temperature
No Stations Reporting

Nearby Weather Stations

Station Location Temp. Heat Index Dew Point Humidity Wind Precip. Elev Updated Type
MesoWest ATOKA , Lane, OK 75 °F 73 °F - - North  at  - 0.00 in / hr 573 ft 2:05 AM CDT MADIS
APRSWXNET Coalgate OK , Coalgate, OK 79 °F 82 °F 72 °F 80% North  at  0 mph 0.00 in / hr 623 ft 12:33 AM CDT MADIS
MesoWest COOK , Caney, OK 78 °F 76 °F - - North  at  - 0.00 in / hr 533 ft 2:30 AM CDT MADIS
MesoWest GRACE , Wardville, OK 73 °F 71 °F - - North  at  - 0.00 in / hr 678 ft 2:45 AM CDT MADIS
MesoWest CALERA , Caddo, OK 80 °F 78 °F - - North  at  - 0.00 in / hr 641 ft 1:10 AM CDT MADIS

Show More Stations Show Fewer Stations